KMWL/MWL METAR and TAF weather

Enter ICAO airport designator
Station Type Date Time Source
KMWL METAR 2021/07/29 18:53 UTC NOAA

KMWL 291853Z AUTO 00000KT 10SM CLR 34/21 A3005 RMK AO2 SLP159 T03390206


Station Type Date Time Source
KMWL Decoded METAR 2021/07/29 18:53 UTC NOAA

MINERAL WELLS AIRPORT, TX, United States (KMWL) 32-47N 098-04W 284M
Jul 29, 2021 - 02:53 PM EDT / 2021.07.29 1853 UTC
Wind: Calm:0
Visibility: 10 mile(s):0
Sky conditions: clear
Temperature: 93.0 F (33.9 C)
Heat index: 97.9 F (36.6 C):1
Dew Point: 69.1 F (20.6 C)
Relative Humidity: 45%
Pressure (altimeter): 30.05 in. Hg (1017 hPa)
ob: KMWL 291853Z AUTO 00000KT 10SM CLR 34/21 A3005 RMK AO2 SLP159 T03390206
cycle: 19

Station Type Date Time Source
KMWL TAF UTC NOAA

Error!

Example: see airport list